sensor_id;sensor_type;location;lat;lon;timestamp;P1;durP1;ratioP1;P2;durP2;ratioP2
10882;SDS011;5494;51.796;10.952;2024-01-10T00:01:07;19.90;;;9.98;;
10882;SDS011;5494;51.796;10.952;2024-01-10T00:03:35;23.63;;;11.68;;
10882;SDS011;5494;51.796;10.952;2024-01-10T00:06:05;23.50;;;11.65;;
10882;SDS011;5494;51.796;10.952;2024-01-10T00:08:33;21.45;;;11.23;;
10882;SDS011;5494;51.796;10.952;2024-01-10T00:11:01;24.10;;;11.65;;
10882;SDS011;5494;51.796;10.952;2024-01-10T00:13:31;25.33;;;11.65;;
10882;SDS011;5494;51.796;10.952;2024-01-10T00:16:00;24.73;;;12.63;;
10882;SDS011;5494;51.796;10.952;2024-01-10T00:18:28;29.55;;;13.77;;
10882;SDS011;5494;51.796;10.952;2024-01-10T00:20:58;29.27;;;15.45;;
10882;SDS011;5494;51.796;10.952;2024-01-10T00:23:27;28.85;;;15.15;;
10882;SDS011;5494;51.796;10.952;2024-01-10T00:25:55;29.90;;;16.95;;
10882;SDS011;5494;51.796;10.952;2024-01-10T00:28:23;34.03;;;17.25;;
10882;SDS011;5494;51.796;10.952;2024-01-10T00:30:51;30.98;;;16.30;;
10882;SDS011;5494;51.796;10.952;2024-01-10T00:33:20;34.17;;;17.52;;
10882;SDS011;5494;51.796;10.952;2024-01-10T00:35:48;31.83;;;16.65;;
10882;SDS011;5494;51.796;10.952;2024-01-10T00:38:16;31.15;;;15.05;;
10882;SDS011;5494;51.796;10.952;2024-01-10T00:40:46;29.85;;;15.68;;
10882;SDS011;5494;51.796;10.952;2024-01-10T00:43:14;27.48;;;14.05;;
10882;SDS011;5494;51.796;10.952;2024-01-10T00:45:42;28.52;;;13.77;;
10882;SDS011;5494;51.796;10.952;2024-01-10T00:48:10;25.75;;;14.00;;
10882;SDS011;5494;51.796;10.952;2024-01-10T00:50:39;34.53;;;16.58;;
10882;SDS011;5494;51.796;10.952;2024-01-10T00:53:07;45.88;;;18.88;;
10882;SDS011;5494;51.796;10.952;2024-01-10T00:55:35;64.40;;;25.02;;
10882;SDS011;5494;51.796;10.952;2024-01-10T00:58:05;39.47;;;17.50;;
10882;SDS011;5494;51.796;10.952;2024-01-10T01:00:33;31.73;;;13.23;;
10882;SDS011;5494;51.796;10.952;2024-01-10T01:03:01;28.95;;;13.43;;
10882;SDS011;5494;51.796;10.952;2024-01-10T01:05:29;25.90;;;12.73;;
10882;SDS011;5494;51.796;10.952;2024-01-10T01:07:57;25.83;;;11.85;;
10882;SDS011;5494;51.796;10.952;2024-01-10T01:10:25;30.25;;;13.82;;
10882;SDS011;5494;51.796;10.952;2024-01-10T01:12:53;32.50;;;15.32;;
10882;SDS011;5494;51.796;10.952;2024-01-10T01:15:22;33.20;;;14.75;;
10882;SDS011;5494;51.796;10.952;2024-01-10T01:17:54;34.50;;;15.85;;
10882;SDS011;5494;51.796;10.952;2024-01-10T01:20:22;29.15;;;13.85;;
10882;SDS011;5494;51.796;10.952;2024-01-10T01:22:52;29.52;;;13.48;;
10882;SDS011;5494;51.796;10.952;2024-01-10T01:25:20;35.65;;;13.60;;
10882;SDS011;5494;51.796;10.952;2024-01-10T01:27:48;31.50;;;15.23;;
10882;SDS011;5494;51.796;10.952;2024-01-10T01:30:16;30.40;;;15.52;;
10882;SDS011;5494;51.796;10.952;2024-01-10T01:32:47;34.88;;;15.20;;
10882;SDS011;5494;51.796;10.952;2024-01-10T01:35:15;27.75;;;14.95;;
10882;SDS011;5494;51.796;10.952;2024-01-10T01:37:48;30.75;;;14.23;;
10882;SDS011;5494;51.796;10.952;2024-01-10T01:40:17;26.75;;;14.48;;
10882;SDS011;5494;51.796;10.952;2024-01-10T01:42:45;28.15;;;13.93;;
10882;SDS011;5494;51.796;10.952;2024-01-10T01:45:14;28.60;;;13.90;;
10882;SDS011;5494;51.796;10.952;2024-01-10T01:47:43;27.60;;;14.80;;
10882;SDS011;5494;51.796;10.952;2024-01-10T01:50:13;30.77;;;15.32;;
10882;SDS011;5494;51.796;10.952;2024-01-10T01:52:42;24.70;;;12.70;;
10882;SDS011;5494;51.796;10.952;2024-01-10T01:55:11;29.65;;;13.55;;
10882;SDS011;5494;51.796;10.952;2024-01-10T01:57:39;26.63;;;12.80;;
10882;SDS011;5494;51.796;10.952;2024-01-10T02:00:08;32.47;;;14.48;;
10882;SDS011;5494;51.796;10.952;2024-01-10T02:02:37;35.33;;;16.05;;
10882;SDS011;5494;51.796;10.952;2024-01-10T02:05:07;26.13;;;14.30;;
10882;SDS011;5494;51.796;10.952;2024-01-10T02:07:37;29.25;;;13.57;;
10882;SDS011;5494;51.796;10.952;2024-01-10T02:10:05;31.80;;;13.85;;
10882;SDS011;5494;51.796;10.952;2024-01-10T02:12:34;30.13;;;13.95;;
10882;SDS011;5494;51.796;10.952;2024-01-10T02:15:03;33.63;;;14.57;;
10882;SDS011;5494;51.796;10.952;2024-01-10T02:17:32;32.80;;;13.88;;
10882;SDS011;5494;51.796;10.952;2024-01-10T02:20:09;31.27;;;14.40;;
10882;SDS011;5494;51.796;10.952;2024-01-10T02:22:40;32.22;;;13.93;;
10882;SDS011;5494;51.796;10.952;2024-01-10T02:25:09;32.20;;;15.45;;
10882;SDS011;5494;51.796;10.952;2024-01-10T02:27:38;29.33;;;14.52;;
10882;SDS011;5494;51.796;10.952;2024-01-10T02:30:07;27.13;;;13.52;;
10882;SDS011;5494;51.796;10.952;2024-01-10T02:32:38;29.45;;;13.07;;
10882;SDS011;5494;51.796;10.952;2024-01-10T02:35:06;33.03;;;13.80;;
10882;SDS011;5494;51.796;10.952;2024-01-10T02:37:35;34.28;;;14.63;;
10882;SDS011;5494;51.796;10.952;2024-01-10T02:40:04;36.00;;;14.77;;
10882;SDS011;5494;51.796;10.952;2024-01-10T02:42:34;29.95;;;13.88;;
10882;SDS011;5494;51.796;10.952;2024-01-10T02:45:03;33.63;;;14.25;;
10882;SDS011;5494;51.796;10.952;2024-01-10T02:47:32;29.48;;;15.15;;
10882;SDS011;5494;51.796;10.952;2024-01-10T02:50:00;35.97;;;14.02;;
10882;SDS011;5494;51.796;10.952;2024-01-10T02:52:28;31.38;;;14.70;;
10882;SDS011;5494;51.796;10.952;2024-01-10T02:54:56;34.90;;;15.55;;
10882;SDS011;5494;51.796;10.952;2024-01-10T02:57:24;31.20;;;14.23;;
10882;SDS011;5494;51.796;10.952;2024-01-10T02:59:53;30.20;;;15.07;;
10882;SDS011;5494;51.796;10.952;2024-01-10T03:02:22;31.88;;;13.77;;
10882;SDS011;5494;51.796;10.952;2024-01-10T03:04:50;28.90;;;14.63;;
10882;SDS011;5494;51.796;10.952;2024-01-10T03:07:19;32.28;;;14.75;;
10882;SDS011;5494;51.796;10.952;2024-01-10T03:09:46;32.78;;;15.27;;
10882;SDS011;5494;51.796;10.952;2024-01-10T03:12:15;32.20;;;15.43;;
10882;SDS011;5494;51.796;10.952;2024-01-10T03:14:43;32.78;;;14.93;;
10882;SDS011;5494;51.796;10.952;2024-01-10T03:17:12;28.40;;;14.43;;
10882;SDS011;5494;51.796;10.952;2024-01-10T03:19:40;32.17;;;16.40;;
10882;SDS011;5494;51.796;10.952;2024-01-10T03:22:10;34.05;;;14.95;;
10882;SDS011;5494;51.796;10.952;2024-01-10T03:24:39;35.45;;;14.77;;
10882;SDS011;5494;51.796;10.952;2024-01-10T03:27:07;30.15;;;15.32;;
10882;SDS011;5494;51.796;10.952;2024-01-10T03:29:35;37.72;;;15.38;;
10882;SDS011;5494;51.796;10.952;2024-01-10T03:32:03;34.72;;;15.48;;
10882;SDS011;5494;51.796;10.952;2024-01-10T03:34:33;32.70;;;15.38;;
10882;SDS011;5494;51.796;10.952;2024-01-10T03:37:01;30.98;;;13.93;;
10882;SDS011;5494;51.796;10.952;2024-01-10T03:39:29;32.35;;;14.90;;
10882;SDS011;5494;51.796;10.952;2024-01-10T03:41:58;33.17;;;16.13;;
10882;SDS011;5494;51.796;10.952;2024-01-10T03:44:26;38.15;;;15.70;;
10882;SDS011;5494;51.796;10.952;2024-01-10T03:46:54;29.13;;;15.55;;
10882;SDS011;5494;51.796;10.952;2024-01-10T03:49:22;30.00;;;16.23;;
10882;SDS011;5494;51.796;10.952;2024-01-10T03:51:51;33.03;;;15.80;;
10882;SDS011;5494;51.796;10.952;2024-01-10T03:54:19;35.67;;;16.17;;
10882;SDS011;5494;51.796;10.952;2024-01-10T03:56:47;31.63;;;14.70;;
10882;SDS011;5494;51.796;10.952;2024-01-10T03:59:15;33.53;;;16.27;;
10882;SDS011;5494;51.796;10.952;2024-01-10T04:01:43;34.38;;;16.30;;
10882;SDS011;5494;51.796;10.952;2024-01-10T04:04:11;33.95;;;16.20;;
10882;SDS011;5494;51.796;10.952;2024-01-10T04:06:40;37.55;;;16.65;;
10882;SDS011;5494;51.796;10.952;2024-01-10T04:09:09;31.13;;;15.07;;
10882;SDS011;5494;51.796;10.952;2024-01-10T04:11:37;39.55;;;16.42;;
10882;SDS011;5494;51.796;10.952;2024-01-10T04:14:05;34.42;;;16.35;;
10882;SDS011;5494;51.796;10.952;2024-01-10T04:16:33;34.95;;;15.85;;
10882;SDS011;5494;51.796;10.952;2024-01-10T04:19:01;38.10;;;17.38;;
10882;SDS011;5494;51.796;10.952;2024-01-10T04:21:29;34.10;;;15.82;;
10882;SDS011;5494;51.796;10.952;2024-01-10T04:23:57;33.75;;;15.32;;
10882;SDS011;5494;51.796;10.952;2024-01-10T04:26:27;38.65;;;19.00;;
10882;SDS011;5494;51.796;10.952;2024-01-10T04:28:56;49.38;;;20.63;;
10882;SDS011;5494;51.796;10.952;2024-01-10T04:31:24;43.20;;;19.25;;
10882;SDS011;5494;51.796;10.952;2024-01-10T04:33:52;40.63;;;18.30;;
10882;SDS011;5494;51.796;10.952;2024-01-10T04:36:20;33.70;;;15.95;;
10882;SDS011;5494;51.796;10.952;2024-01-10T04:38:48;45.95;;;17.75;;
10882;SDS011;5494;51.796;10.952;2024-01-10T04:41:16;36.40;;;17.25;;
10882;SDS011;5494;51.796;10.952;2024-01-10T04:43:46;34.63;;;15.80;;
10882;SDS011;5494;51.796;10.952;2024-01-10T04:46:14;37.33;;;16.58;;
10882;SDS011;5494;51.796;10.952;2024-01-10T04:48:42;32.50;;;16.40;;
10882;SDS011;5494;51.796;10.952;2024-01-10T04:51:10;37.85;;;16.85;;
10882;SDS011;5494;51.796;10.952;2024-01-10T04:53:38;34.25;;;17.08;;
10882;SDS011;5494;51.796;10.952;2024-01-10T04:56:06;33.40;;;15.73;;
10882;SDS011;5494;51.796;10.952;2024-01-10T04:58:34;32.15;;;16.77;;
10882;SDS011;5494;51.796;10.952;2024-01-10T05:01:04;36.55;;;16.00;;
10882;SDS011;5494;51.796;10.952;2024-01-10T05:03:33;32.97;;;16.52;;
10882;SDS011;5494;51.796;10.952;2024-01-10T05:06:01;34.92;;;17.15;;
10882;SDS011;5494;51.796;10.952;2024-01-10T05:08:29;31.38;;;16.25;;
10882;SDS011;5494;51.796;10.952;2024-01-10T05:10:58;38.95;;;17.38;;
10882;SDS011;5494;51.796;10.952;2024-01-10T05:13:26;34.70;;;16.60;;
10882;SDS011;5494;51.796;10.952;2024-01-10T05:15:54;36.65;;;17.02;;
10882;SDS011;5494;51.796;10.952;2024-01-10T05:18:24;40.15;;;17.60;;
10882;SDS011;5494;51.796;10.952;2024-01-10T05:20:52;34.95;;;15.95;;
10882;SDS011;5494;51.796;10.952;2024-01-10T05:23:20;34.63;;;17.15;;
10882;SDS011;5494;51.796;10.952;2024-01-10T05:25:48;37.13;;;16.63;;
10882;SDS011;5494;51.796;10.952;2024-01-10T05:28:16;40.58;;;17.27;;
10882;SDS011;5494;51.796;10.952;2024-01-10T05:30:44;38.10;;;17.50;;
10882;SDS011;5494;51.796;10.952;2024-01-10T05:33:12;37.13;;;17.83;;
10882;SDS011;5494;51.796;10.952;2024-01-10T05:35:42;35.38;;;17.75;;
10882;SDS011;5494;51.796;10.952;2024-01-10T05:38:10;39.13;;;17.08;;
10882;SDS011;5494;51.796;10.952;2024-01-10T05:40:38;39.88;;;17.58;;
10882;SDS011;5494;51.796;10.952;2024-01-10T05:43:07;34.28;;;16.10;;
10882;SDS011;5494;51.796;10.952;2024-01-10T05:45:36;38.60;;;17.80;;
10882;SDS011;5494;51.796;10.952;2024-01-10T05:48:05;38.05;;;16.73;;
10882;SDS011;5494;51.796;10.952;2024-01-10T05:50:33;38.05;;;16.70;;
10882;SDS011;5494;51.796;10.952;2024-01-10T05:53:03;43.20;;;18.30;;
10882;SDS011;5494;51.796;10.952;2024-01-10T05:55:31;36.28;;;17.50;;
10882;SDS011;5494;51.796;10.952;2024-01-10T05:58:00;35.45;;;16.73;;
10882;SDS011;5494;51.796;10.952;2024-01-10T06:00:28;38.90;;;17.75;;
10882;SDS011;5494;51.796;10.952;2024-01-10T06:02:56;34.00;;;15.88;;
10882;SDS011;5494;51.796;10.952;2024-01-10T06:05:24;42.97;;;18.00;;
10882;SDS011;5494;51.796;10.952;2024-01-10T06:07:53;37.85;;;17.52;;
10882;SDS011;5494;51.796;10.952;2024-01-10T06:10:22;38.97;;;17.25;;
10882;SDS011;5494;51.796;10.952;2024-01-10T06:12:50;38.97;;;17.95;;
10882;SDS011;5494;51.796;10.952;2024-01-10T06:15:18;44.42;;;20.15;;
10882;SDS011;5494;51.796;10.952;2024-01-10T06:17:46;36.78;;;17.85;;
10882;SDS011;5494;51.796;10.952;2024-01-10T06:20:16;40.50;;;20.50;;
10882;SDS011;5494;51.796;10.952;2024-01-10T06:22:44;33.10;;;17.70;;
10882;SDS011;5494;51.796;10.952;2024-01-10T06:25:13;38.60;;;19.75;;
10882;SDS011;5494;51.796;10.952;2024-01-10T06:27:43;38.80;;;18.40;;
10882;SDS011;5494;51.796;10.952;2024-01-10T06:30:11;35.00;;;17.23;;
10882;SDS011;5494;51.796;10.952;2024-01-10T06:32:42;41.75;;;18.30;;
10882;SDS011;5494;51.796;10.952;2024-01-10T06:35:11;37.58;;;18.85;;
10882;SDS011;5494;51.796;10.952;2024-01-10T06:37:40;37.95;;;19.58;;
10882;SDS011;5494;51.796;10.952;2024-01-10T06:40:11;36.67;;;18.92;;
10882;SDS011;5494;51.796;10.952;2024-01-10T06:42:39;38.38;;;19.75;;
10882;SDS011;5494;51.796;10.952;2024-01-10T06:45:09;36.10;;;16.88;;
10882;SDS011;5494;51.796;10.952;2024-01-10T06:47:38;44.08;;;19.08;;
10882;SDS011;5494;51.796;10.952;2024-01-10T06:50:08;36.50;;;18.85;;
10882;SDS011;5494;51.796;10.952;2024-01-10T06:52:37;35.58;;;16.08;;
10882;SDS011;5494;51.796;10.952;2024-01-10T06:55:06;40.20;;;19.50;;
10882;SDS011;5494;51.796;10.952;2024-01-10T06:57:35;41.28;;;19.25;;
10882;SDS011;5494;51.796;10.952;2024-01-10T07:00:06;34.60;;;17.08;;
10882;SDS011;5494;51.796;10.952;2024-01-10T07:02:37;38.67;;;19.55;;
10882;SDS011;5494;51.796;10.952;2024-01-10T07:05:07;38.30;;;18.77;;
10882;SDS011;5494;51.796;10.952;2024-01-10T07:07:36;41.30;;;18.88;;
10882;SDS011;5494;51.796;10.952;2024-01-10T07:10:05;42.58;;;16.92;;
10882;SDS011;5494;51.796;10.952;2024-01-10T07:12:33;35.28;;;15.88;;
10882;SDS011;5494;51.796;10.952;2024-01-10T07:15:03;39.67;;;17.23;;
10882;SDS011;5494;51.796;10.952;2024-01-10T07:17:34;39.08;;;17.65;;
10882;SDS011;5494;51.796;10.952;2024-01-10T07:20:03;42.67;;;17.35;;
10882;SDS011;5494;51.796;10.952;2024-01-10T07:22:34;43.00;;;19.33;;
10882;SDS011;5494;51.796;10.952;2024-01-10T07:25:02;39.17;;;18.27;;
10882;SDS011;5494;51.796;10.952;2024-01-10T07:27:34;46.67;;;19.50;;
10882;SDS011;5494;51.796;10.952;2024-01-10T07:30:04;46.05;;;22.10;;
10882;SDS011;5494;51.796;10.952;2024-01-10T07:32:41;40.65;;;19.88;;
10882;SDS011;5494;51.796;10.952;2024-01-10T07:35:10;44.05;;;20.45;;
10882;SDS011;5494;51.796;10.952;2024-01-10T07:37:41;43.72;;;19.23;;
10882;SDS011;5494;51.796;10.952;2024-01-10T07:40:10;42.50;;;19.40;;
10882;SDS011;5494;51.796;10.952;2024-01-10T07:42:40;40.67;;;18.92;;
10882;SDS011;5494;51.796;10.952;2024-01-10T07:45:08;44.85;;;20.10;;
10882;SDS011;5494;51.796;10.952;2024-01-10T07:47:37;33.03;;;16.92;;
10882;SDS011;5494;51.796;10.952;2024-01-10T07:50:08;42.45;;;20.90;;
10882;SDS011;5494;51.796;10.952;2024-01-10T07:52:42;47.80;;;23.33;;
10882;SDS011;5494;51.796;10.952;2024-01-10T07:55:12;48.13;;;22.70;;
10882;SDS011;5494;51.796;10.952;2024-01-10T07:57:40;39.60;;;18.48;;
10882;SDS011;5494;51.796;10.952;2024-01-10T08:00:09;33.80;;;19.58;;
10882;SDS011;5494;51.796;10.952;2024-01-10T08:02:37;53.28;;;22.25;;
10882;SDS011;5494;51.796;10.952;2024-01-10T08:05:08;45.47;;;21.83;;
10882;SDS011;5494;51.796;10.952;2024-01-10T08:07:36;44.13;;;22.10;;
10882;SDS011;5494;51.796;10.952;2024-01-10T08:10:06;45.38;;;21.80;;
10882;SDS011;5494;51.796;10.952;2024-01-10T08:12:36;45.08;;;22.02;;
10882;SDS011;5494;51.796;10.952;2024-01-10T08:15:06;47.35;;;24.38;;
10882;SDS011;5494;51.796;10.952;2024-01-10T08:17:34;47.35;;;24.38;;
10882;SDS011;5494;51.796;10.952;2024-01-10T08:20:04;54.55;;;24.83;;
10882;SDS011;5494;51.796;10.952;2024-01-10T08:22:37;54.90;;;24.98;;
10882;SDS011;5494;51.796;10.952;2024-01-10T08:25:05;50.97;;;26.08;;
10882;SDS011;5494;51.796;10.952;2024-01-10T08:27:34;44.45;;;22.92;;
10882;SDS011;5494;51.796;10.952;2024-01-10T08:30:02;47.55;;;23.70;;
10882;SDS011;5494;51.796;10.952;2024-01-10T08:32:32;46.00;;;22.13;;
10882;SDS011;5494;51.796;10.952;2024-01-10T08:35:02;44.17;;;21.92;;
10882;SDS011;5494;51.796;10.952;2024-01-10T08:37:32;43.85;;;22.77;;
10882;SDS011;5494;51.796;10.952;2024-01-10T08:40:00;35.95;;;19.85;;
10882;SDS011;5494;51.796;10.952;2024-01-10T08:42:33;37.60;;;20.35;;
10882;SDS011;5494;51.796;10.952;2024-01-10T08:45:02;38.65;;;20.27;;
10882;SDS011;5494;51.796;10.952;2024-01-10T08:47:31;40.17;;;21.63;;
10882;SDS011;5494;51.796;10.952;2024-01-10T08:50:00;38.63;;;19.70;;
10882;SDS011;5494;51.796;10.952;2024-01-10T08:52:29;44.97;;;21.42;;
10882;SDS011;5494;51.796;10.952;2024-01-10T08:55:00;37.45;;;21.42;;
10882;SDS011;5494;51.796;10.952;2024-01-10T08:57:28;42.33;;;20.90;;
10882;SDS011;5494;51.796;10.952;2024-01-10T08:59:56;40.35;;;21.30;;
10882;SDS011;5494;51.796;10.952;2024-01-10T09:02:24;35.60;;;20.52;;
10882;SDS011;5494;51.796;10.952;2024-01-10T09:04:54;40.55;;;21.50;;
10882;SDS011;5494;51.796;10.952;2024-01-10T09:07:22;35.80;;;20.73;;
10882;SDS011;5494;51.796;10.952;2024-01-10T09:09:50;37.65;;;21.73;;
10882;SDS011;5494;51.796;10.952;2024-01-10T09:12:19;37.72;;;21.20;;
10882;SDS011;5494;51.796;10.952;2024-01-10T09:14:47;45.35;;;24.17;;
10882;SDS011;5494;51.796;10.952;2024-01-10T09:17:15;45.42;;;24.02;;
10882;SDS011;5494;51.796;10.952;2024-01-10T09:19:43;46.47;;;25.15;;
10882;SDS011;5494;51.796;10.952;2024-01-10T09:22:12;46.95;;;24.27;;
10882;SDS011;5494;51.796;10.952;2024-01-10T09:24:40;50.22;;;25.08;;
10882;SDS011;5494;51.796;10.952;2024-01-10T09:27:09;48.53;;;25.70;;
10882;SDS011;5494;51.796;10.952;2024-01-10T09:29:39;48.17;;;25.17;;
10882;SDS011;5494;51.796;10.952;2024-01-10T09:32:06;41.55;;;23.10;;
10882;SDS011;5494;51.796;10.952;2024-01-10T09:34:34;44.45;;;24.55;;
10882;SDS011;5494;51.796;10.952;2024-01-10T09:37:02;44.42;;;24.58;;
10882;SDS011;5494;51.796;10.952;2024-01-10T09:39:31;45.15;;;22.15;;
10882;SDS011;5494;51.796;10.952;2024-01-10T09:41:59;35.28;;;20.85;;
10882;SDS011;5494;51.796;10.952;2024-01-10T09:44:30;41.08;;;21.52;;
10882;SDS011;5494;51.796;10.952;2024-01-10T09:47:00;42.47;;;23.17;;
10882;SDS011;5494;51.796;10.952;2024-01-10T09:49:28;42.58;;;21.60;;
10882;SDS011;5494;51.796;10.952;2024-01-10T09:51:57;38.70;;;22.17;;
10882;SDS011;5494;51.796;10.952;2024-01-10T09:54:26;37.97;;;21.45;;
10882;SDS011;5494;51.796;10.952;2024-01-10T09:56:58;37.92;;;21.45;;
10882;SDS011;5494;51.796;10.952;2024-01-10T09:59:26;42.03;;;21.42;;
10882;SDS011;5494;51.796;10.952;2024-01-10T10:01:55;36.05;;;20.83;;
10882;SDS011;5494;51.796;10.952;2024-01-10T10:04:27;40.05;;;21.88;;
10882;SDS011;5494;51.796;10.952;2024-01-10T10:06:58;46.28;;;21.83;;
10882;SDS011;5494;51.796;10.952;2024-01-10T10:09:28;45.72;;;21.10;;
10882;SDS011;5494;51.796;10.952;2024-01-10T10:11:57;37.88;;;20.67;;
10882;SDS011;5494;51.796;10.952;2024-01-10T10:14:29;43.28;;;20.95;;
10882;SDS011;5494;51.796;10.952;2024-01-10T10:17:07;37.97;;;20.77;;
10882;SDS011;5494;51.796;10.952;2024-01-10T10:19:44;38.13;;;20.98;;
10882;SDS011;5494;51.796;10.952;2024-01-10T10:22:14;36.08;;;20.58;;
10882;SDS011;5494;51.796;10.952;2024-01-10T10:24:42;37.15;;;21.55;;
10882;SDS011;5494;51.796;10.952;2024-01-10T10:27:16;37.17;;;21.00;;
10882;SDS011;5494;51.796;10.952;2024-01-10T10:29:44;41.58;;;21.98;;
10882;SDS011;5494;51.796;10.952;2024-01-10T10:32:14;38.70;;;21.58;;
10882;SDS011;5494;51.796;10.952;2024-01-10T10:34:46;40.83;;;22.70;;
10882;SDS011;5494;51.796;10.952;2024-01-10T10:37:14;42.40;;;22.67;;
10882;SDS011;5494;51.796;10.952;2024-01-10T10:39:42;38.47;;;20.90;;
10882;SDS011;5494;51.796;10.952;2024-01-10T10:42:11;46.35;;;24.25;;
10882;SDS011;5494;51.796;10.952;2024-01-10T10:44:42;41.90;;;22.13;;
10882;SDS011;5494;51.796;10.952;2024-01-10T10:47:13;39.50;;;21.20;;
10882;SDS011;5494;51.796;10.952;2024-01-10T10:49:47;46.97;;;22.15;;
10882;SDS011;5494;51.796;10.952;2024-01-10T10:52:21;43.20;;;21.50;;
10882;SDS011;5494;51.796;10.952;2024-01-10T10:54:51;41.17;;;19.58;;
10882;SDS011;5494;51.796;10.952;2024-01-10T10:57:23;45.03;;;22.23;;
10882;SDS011;5494;51.796;10.952;2024-01-10T10:59:54;43.35;;;20.55;;
10882;SDS011;5494;51.796;10.952;2024-01-10T11:02:25;43.42;;;22.15;;
10882;SDS011;5494;51.796;10.952;2024-01-10T11:04:58;46.13;;;21.33;;
10882;SDS011;5494;51.796;10.952;2024-01-10T11:07:30;44.92;;;22.48;;
10882;SDS011;5494;51.796;10.952;2024-01-10T11:10:02;46.10;;;21.55;;
10882;SDS011;5494;51.796;10.952;2024-01-10T11:12:43;43.78;;;21.88;;
10882;SDS011;5494;51.796;10.952;2024-01-10T11:15:53;41.13;;;22.35;;
10882;SDS011;5494;51.796;10.952;2024-01-10T11:22:25;39.70;;;20.15;;
10882;SDS011;5494;51.796;10.952;2024-01-10T11:25:10;40.85;;;20.73;;
10882;SDS011;5494;51.796;10.952;2024-01-10T11:27:39;42.13;;;21.33;;
10882;SDS011;5494;51.796;10.952;2024-01-10T11:30:07;45.10;;;20.45;;
10882;SDS011;5494;51.796;10.952;2024-01-10T11:32:38;44.40;;;20.52;;
10882;SDS011;5494;51.796;10.952;2024-01-10T11:35:11;44.47;;;22.42;;
10882;SDS011;5494;51.796;10.952;2024-01-10T11:37:48;40.22;;;19.42;;
10882;SDS011;5494;51.796;10.952;2024-01-10T11:40:23;41.85;;;21.50;;
10882;SDS011;5494;51.796;10.952;2024-01-10T11:43:15;44.65;;;22.90;;
10882;SDS011;5494;51.796;10.952;2024-01-10T11:45:52;42.25;;;20.75;;
10882;SDS011;5494;51.796;10.952;2024-01-10T11:48:26;46.17;;;22.17;;
10882;SDS011;5494;51.796;10.952;2024-01-10T11:50:56;48.50;;;22.15;;
10882;SDS011;5494;51.796;10.952;2024-01-10T11:53:40;38.53;;;19.38;;
10882;SDS011;5494;51.796;10.952;2024-01-10T11:56:13;37.22;;;20.92;;
10882;SDS011;5494;51.796;10.952;2024-01-10T11:58:55;46.22;;;21.45;;
10882;SDS011;5494;51.796;10.952;2024-01-10T12:01:30;46.75;;;21.42;;
10882;SDS011;5494;51.796;10.952;2024-01-10T12:04:00;46.03;;;21.77;;
10882;SDS011;5494;51.796;10.952;2024-01-10T12:06:43;43.00;;;21.08;;
10882;SDS011;5494;51.796;10.952;2024-01-10T12:09:14;44.92;;;23.23;;
10882;SDS011;5494;51.796;10.952;2024-01-10T12:11:42;41.67;;;22.45;;
10882;SDS011;5494;51.796;10.952;2024-01-10T12:14:11;48.42;;;21.98;;
10882;SDS011;5494;51.796;10.952;2024-01-10T12:16:39;35.60;;;18.42;;
10882;SDS011;5494;51.796;10.952;2024-01-10T12:19:08;43.50;;;21.65;;
10882;SDS011;5494;51.796;10.952;2024-01-10T12:21:36;39.30;;;21.90;;
10882;SDS011;5494;51.796;10.952;2024-01-10T12:24:04;43.60;;;22.42;;
10882;SDS011;5494;51.796;10.952;2024-01-10T12:26:34;44.63;;;22.38;;
10882;SDS011;5494;51.796;10.952;2024-01-10T12:29:03;47.17;;;24.13;;
10882;SDS011;5494;51.796;10.952;2024-01-10T12:31:33;46.08;;;23.33;;
10882;SDS011;5494;51.796;10.952;2024-01-10T12:34:01;47.85;;;24.92;;
10882;SDS011;5494;51.796;10.952;2024-01-10T12:36:33;47.65;;;23.42;;
10882;SDS011;5494;51.796;10.952;2024-01-10T12:39:02;46.00;;;23.92;;
10882;SDS011;5494;51.796;10.952;2024-01-10T12:41:34;50.17;;;23.83;;
10882;SDS011;5494;51.796;10.952;2024-01-10T12:44:03;49.70;;;22.67;;
10882;SDS011;5494;51.796;10.952;2024-01-10T12:46:33;43.03;;;20.88;;
10882;SDS011;5494;51.796;10.952;2024-01-10T12:49:01;48.03;;;22.95;;
10882;SDS011;5494;51.796;10.952;2024-01-10T12:51:34;44.70;;;23.55;;
10882;SDS011;5494;51.796;10.952;2024-01-10T12:54:03;48.33;;;23.00;;
10882;SDS011;5494;51.796;10.952;2024-01-10T12:56:31;50.25;;;22.63;;
10882;SDS011;5494;51.796;10.952;2024-01-10T12:59:00;46.42;;;24.48;;
10882;SDS011;5494;51.796;10.952;2024-01-10T13:01:30;51.80;;;23.90;;
10882;SDS011;5494;51.796;10.952;2024-01-10T13:03:58;48.28;;;23.92;;
10882;SDS011;5494;51.796;10.952;2024-01-10T13:06:26;46.72;;;24.73;;
10882;SDS011;5494;51.796;10.952;2024-01-10T13:08:54;52.20;;;25.27;;
10882;SDS011;5494;51.796;10.952;2024-01-10T13:11:22;50.05;;;24.20;;
10882;SDS011;5494;51.796;10.952;2024-01-10T13:13:50;44.88;;;20.13;;
10882;SDS011;5494;51.796;10.952;2024-01-10T13:16:20;42.08;;;21.85;;
10882;SDS011;5494;51.796;10.952;2024-01-10T13:18:48;49.78;;;24.48;;
10882;SDS011;5494;51.796;10.952;2024-01-10T13:21:17;52.33;;;24.85;;
10882;SDS011;5494;51.796;10.952;2024-01-10T13:23:45;51.75;;;23.60;;
10882;SDS011;5494;51.796;10.952;2024-01-10T13:26:13;51.10;;;24.33;;
10882;SDS011;5494;51.796;10.952;2024-01-10T13:28:41;50.92;;;24.65;;
10882;SDS011;5494;51.796;10.952;2024-01-10T13:31:10;51.67;;;24.20;;
10882;SDS011;5494;51.796;10.952;2024-01-10T13:33:39;47.13;;;23.90;;
10882;SDS011;5494;51.796;10.952;2024-01-10T13:36:13;49.33;;;23.52;;
10882;SDS011;5494;51.796;10.952;2024-01-10T13:38:41;53.15;;;26.45;;
10882;SDS011;5494;51.796;10.952;2024-01-10T13:41:09;54.72;;;25.08;;
10882;SDS011;5494;51.796;10.952;2024-01-10T13:43:37;52.33;;;24.70;;
10882;SDS011;5494;51.796;10.952;2024-01-10T13:46:06;53.42;;;24.42;;
10882;SDS011;5494;51.796;10.952;2024-01-10T13:48:35;46.17;;;24.38;;
10882;SDS011;5494;51.796;10.952;2024-01-10T13:51:05;49.75;;;25.48;;
10882;SDS011;5494;51.796;10.952;2024-01-10T13:53:33;53.97;;;26.17;;
10882;SDS011;5494;51.796;10.952;2024-01-10T13:56:03;55.85;;;26.45;;
10882;SDS011;5494;51.796;10.952;2024-01-10T13:58:31;47.97;;;25.08;;
10882;SDS011;5494;51.796;10.952;2024-01-10T14:00:59;59.35;;;26.15;;
10882;SDS011;5494;51.796;10.952;2024-01-10T14:03:28;54.03;;;26.17;;
10882;SDS011;5494;51.796;10.952;2024-01-10T14:05:59;53.55;;;25.27;;
10882;SDS011;5494;51.796;10.952;2024-01-10T14:08:29;56.72;;;26.25;;
10882;SDS011;5494;51.796;10.952;2024-01-10T14:10:57;56.55;;;26.92;;
10882;SDS011;5494;51.796;10.952;2024-01-10T14:13:25;48.65;;;24.45;;
10882;SDS011;5494;51.796;10.952;2024-01-10T14:15:53;59.38;;;27.58;;
10882;SDS011;5494;51.796;10.952;2024-01-10T14:18:21;50.28;;;26.20;;
10882;SDS011;5494;51.796;10.952;2024-01-10T14:20:49;50.47;;;25.77;;
10882;SDS011;5494;51.796;10.952;2024-01-10T14:23:17;49.70;;;26.30;;
10882;SDS011;5494;51.796;10.952;2024-01-10T14:25:48;54.63;;;27.25;;
10882;SDS011;5494;51.796;10.952;2024-01-10T14:28:18;55.75;;;26.45;;
10882;SDS011;5494;51.796;10.952;2024-01-10T14:30:47;53.28;;;25.65;;
10882;SDS011;5494;51.796;10.952;2024-01-10T14:33:18;49.33;;;25.33;;
10882;SDS011;5494;51.796;10.952;2024-01-10T14:35:46;48.42;;;25.95;;
10882;SDS011;5494;51.796;10.952;2024-01-10T14:38:15;54.25;;;27.67;;